aviador You're here:

KQD3 Decoded Metar

in
Report Time2018-05-23 15:56:00
UTC Time2018-05-23 16:33:24
Flight Rules vfr VFR
Wind120° at 05 kt
W.Rank120° ranks 11
Current wind is above 120° avg. (4.9)
Visibility9999 m
Phenomena:N/A
Clouds:N/A
Expected CloudBase > 4,400 ft AGL from Temp-Dew spread
CeilingNone
Temp33°C
Dew Point22°C (52% RH)
Heat Index36.9°C
QNH1007 hPa
Raw Report
METAR KQD3 231556Z AUTO 12005KT 9999 CLR 33/22 A2974 RMK AO2 SLP036
WND DATA ESTMD T03280224=

Extra information for KQD3:More info

Social comments